createdAt,value
2018-02-06T00:01:37.505Z,-4.60
2018-02-06T00:04:05.079Z,-4.60
2018-02-06T00:06:32.750Z,-4.60
2018-02-06T00:09:01.153Z,-4.70
2018-02-06T00:11:28.762Z,-4.70
2018-02-06T00:13:56.352Z,-4.70
2018-02-06T00:16:24.709Z,-4.80
2018-02-06T00:18:52.317Z,-4.80
2018-02-06T00:21:19.949Z,-4.80
2018-02-06T00:23:47.615Z,-4.80
2018-02-06T00:26:15.968Z,-4.80
2018-02-06T00:28:43.660Z,-4.80
2018-02-06T00:31:12.008Z,-4.90
2018-02-06T00:33:39.618Z,-4.90
2018-02-06T00:36:07.208Z,-4.90
2018-02-06T00:38:34.798Z,-4.90
2018-02-06T00:41:02.391Z,-4.80
2018-02-06T00:43:30.732Z,-4.80
2018-02-06T00:45:58.366Z,-4.90
2018-02-06T00:48:25.948Z,-4.90
2018-02-06T00:50:53.548Z,-4.80
2018-02-06T00:53:21.956Z,-4.90
2018-02-06T00:55:49.547Z,-4.90
2018-02-06T00:58:17.135Z,-4.90
2018-02-06T01:00:44.776Z,-5.00
2018-02-06T01:03:12.424Z,-5.00
2018-02-06T01:05:39.996Z,-5.00
2018-02-06T01:08:07.590Z,-5.00
2018-02-06T01:10:35.946Z,-5.00
2018-02-06T01:13:03.526Z,-5.10
2018-02-06T01:15:31.905Z,-5.10
2018-02-06T01:18:00.264Z,-5.10
2018-02-06T01:20:27.841Z,-5.20
2018-02-06T01:22:56.220Z,-5.20
2018-02-06T01:25:24.561Z,-5.20
2018-02-06T01:27:52.199Z,-5.20
2018-02-06T01:30:19.900Z,-5.20
2018-02-06T01:32:47.512Z,-5.20
2018-02-06T01:35:15.150Z,-5.30
2018-02-06T01:37:43.491Z,-5.30
2018-02-06T01:40:11.087Z,-5.30
2018-02-06T01:42:39.448Z,-5.30
2018-02-06T01:45:07.026Z,-5.30
2018-02-06T01:47:34.641Z,-5.30
2018-02-06T01:50:05.140Z,-5.30
2018-02-06T01:52:32.769Z,-5.30
2018-02-06T01:55:01.107Z,-5.40
2018-02-06T01:57:28.700Z,-5.40
2018-02-06T01:59:56.372Z,-5.40
2018-02-06T02:02:24.766Z,-5.40
2018-02-06T02:04:53.109Z,-5.40
2018-02-06T02:07:20.785Z,-5.40
2018-02-06T02:09:48.448Z,-5.40
2018-02-06T02:12:16.025Z,-5.40
2018-02-06T02:14:44.394Z,-5.40
2018-02-06T02:17:12.743Z,-5.40
2018-02-06T02:19:40.993Z,-5.40
2018-02-06T02:22:08.570Z,-5.40
2018-02-06T02:24:36.172Z,-5.40
2018-02-06T02:27:04.517Z,-5.40
2018-02-06T02:29:32.101Z,-5.40
2018-02-06T02:31:59.708Z,-5.40
2018-02-06T02:34:27.287Z,-5.40
2018-02-06T02:36:54.872Z,-5.40
2018-02-06T02:39:22.451Z,-5.40
2018-02-06T04:39:57.375Z,-6.20
2018-02-06T04:42:25.760Z,-6.30
2018-02-06T04:44:54.140Z,-6.30
2018-02-06T04:47:22.484Z,-6.30
2018-02-06T04:49:50.075Z,-6.30
2018-02-06T04:52:18.424Z,-6.40
2018-02-06T04:54:45.993Z,-6.40
2018-02-06T04:57:13.691Z,-6.40
2018-02-06T04:59:42.050Z,-6.40
2018-02-06T05:02:09.742Z,-6.50
2018-02-06T05:04:37.379Z,-6.50
2018-02-06T05:07:05.722Z,-6.60
2018-02-06T05:09:33.337Z,-6.60
2018-02-06T05:12:00.983Z,-6.60
2018-02-06T05:14:29.360Z,-6.70
2018-02-06T05:16:58.244Z,-6.70
2018-02-06T05:19:26.592Z,-6.70
2018-02-06T05:21:54.185Z,-6.70
2018-02-06T05:24:21.811Z,-6.70
2018-02-06T05:26:49.391Z,-6.70
2018-02-06T05:29:17.741Z,-6.80
2018-02-06T05:31:45.370Z,-6.80
2018-02-06T05:34:12.954Z,-6.70
2018-02-06T05:36:40.568Z,-6.80
2018-02-06T05:39:08.935Z,-6.80
2018-02-06T05:41:37.277Z,-6.40
2018-02-06T05:44:04.884Z,-6.40
2018-02-06T05:46:32.450Z,-6.40
2018-02-06T05:49:00.804Z,-6.70
2018-02-06T05:51:28.493Z,-6.70
2018-02-06T05:53:56.983Z,-6.80
2018-02-06T05:56:25.360Z,-6.80
2018-02-06T05:58:53.737Z,-6.80
2018-02-06T06:01:22.116Z,-6.80
2018-02-06T06:03:50.456Z,-6.80
2018-02-06T06:06:18.115Z,-6.80
2018-02-06T06:08:46.268Z,-6.80
2018-02-06T06:11:13.854Z,-6.90
2018-02-06T06:13:41.535Z,-6.80
2018-02-06T06:16:09.112Z,-6.90
2018-02-06T06:18:37.480Z,-6.90
2018-02-06T06:21:05.877Z,-6.90
2018-02-06T06:23:34.237Z,-6.90
2018-02-06T06:26:01.813Z,-6.90
2018-02-06T06:28:30.173Z,-6.90
2018-02-06T06:30:57.753Z,-6.90
2018-02-06T06:33:26.101Z,-6.80
2018-02-06T06:35:53.718Z,-6.90
2018-02-06T06:38:21.319Z,-6.80
2018-02-06T06:40:48.944Z,-6.80
2018-02-06T06:43:16.528Z,-6.90
2018-02-06T06:45:44.118Z,-4.30
2018-02-06T06:48:11.783Z,-5.40
2018-02-06T06:50:40.946Z,-6.30
2018-02-06T06:53:08.560Z,-6.30
2018-02-06T06:55:36.166Z,-6.60
2018-02-06T06:58:04.942Z,-6.70
2018-02-06T07:00:32.536Z,-6.80
2018-02-06T07:03:00.109Z,-6.90
2018-02-06T07:05:27.840Z,-6.90
2018-02-06T07:07:55.436Z,-6.90
2018-02-06T07:10:23.807Z,-6.90
2018-02-06T07:12:51.474Z,-6.90
2018-02-06T07:15:19.832Z,-6.80
2018-02-06T07:17:47.417Z,-6.80
2018-02-06T07:20:15.768Z,-6.70
2018-02-06T07:22:43.363Z,-6.70
2018-02-06T07:25:11.705Z,-6.60
2018-02-06T07:27:39.296Z,-6.70
2018-02-06T07:30:07.656Z,-6.50
2018-02-06T07:32:35.235Z,-6.60
2018-02-06T07:35:03.600Z,-6.30
2018-02-06T07:37:31.172Z,-6.30
2018-02-06T07:39:59.544Z,-6.10
2018-02-06T07:42:27.124Z,-6.10
2018-02-06T07:44:55.503Z,-5.90
2018-02-06T07:47:23.100Z,-5.90
2018-02-06T07:49:50.751Z,-5.70
2018-02-06T07:52:18.450Z,-5.60
2018-02-06T07:54:46.025Z,-5.40
2018-02-06T07:57:13.640Z,-5.30
2018-02-06T07:59:41.268Z,-5.10
2018-02-06T08:02:09.645Z,-4.90
2018-02-06T08:04:38.004Z,-4.70
2018-02-06T08:07:05.572Z,-4.70
2018-02-06T08:09:33.940Z,-4.40
2018-02-06T08:12:01.655Z,-4.40
2018-02-06T08:14:29.245Z,-4.20
2018-02-06T08:16:56.821Z,-4.00
2018-02-06T08:19:24.451Z,-3.80
2018-02-06T08:21:52.063Z,-3.60
2018-02-06T08:24:20.408Z,-3.10
2018-02-06T08:26:48.396Z,-3.10
2018-02-06T08:29:16.030Z,-2.90
2018-02-06T08:31:43.628Z,-2.60
2018-02-06T08:34:12.052Z,-1.00
2018-02-06T08:36:39.678Z,-1.10
2018-02-06T08:39:08.072Z,-0.90
2018-02-06T08:41:35.763Z,-0.90
2018-02-06T08:44:03.370Z,-0.90
2018-02-06T08:46:31.742Z,-0.50
2018-02-06T08:48:59.336Z,-0.60
2018-02-06T08:51:26.973Z,-0.30
2018-02-06T08:53:55.315Z,0.10
2018-02-06T08:56:22.903Z,0.10
2018-02-06T08:58:51.290Z,0.30
2018-02-06T09:01:19.671Z,0.50
2018-02-06T09:03:48.033Z,0.70
2018-02-06T09:06:15.704Z,0.70
2018-02-06T09:08:43.326Z,0.90
2018-02-06T09:11:10.960Z,1.10
2018-02-06T09:13:39.469Z,1.20
2018-02-06T09:16:07.055Z,1.20
2018-02-06T09:18:34.735Z,1.50
2018-02-06T09:21:03.077Z,1.80
2018-02-06T09:23:30.653Z,1.70
2018-02-06T09:25:58.355Z,2.00
2018-02-06T09:28:26.007Z,2.20
2018-02-06T09:30:54.380Z,2.70
2018-02-06T09:33:22.780Z,2.90
2018-02-06T09:35:50.454Z,2.80
2018-02-06T09:38:18.199Z,3.00
2018-02-06T09:40:45.852Z,3.00
2018-02-06T09:43:14.228Z,3.40
2018-02-06T09:45:42.588Z,3.50
2018-02-06T09:48:10.189Z,3.50
2018-02-06T09:50:37.764Z,3.60
2018-02-06T09:53:05.384Z,3.50
2018-02-06T09:55:33.749Z,4.10
2018-02-06T09:58:01.344Z,4.10
2018-02-06T10:00:29.680Z,4.50
2018-02-06T10:02:57.292Z,4.50
2018-02-06T10:05:24.874Z,4.80
2018-02-06T10:07:52.444Z,4.80
2018-02-06T10:10:20.038Z,4.70
2018-02-06T10:12:47.628Z,4.70
2018-02-06T10:15:15.300Z,4.90
2018-02-06T10:17:42.875Z,5.00
2018-02-06T10:20:10.487Z,5.10
2018-02-06T10:22:38.845Z,5.30
2018-02-06T10:25:06.432Z,5.30
2018-02-06T10:27:34.804Z,5.70
2018-02-06T10:30:03.152Z,5.90
2018-02-06T10:32:30.759Z,5.90
2018-02-06T10:34:59.126Z,6.10
2018-02-06T10:37:27.463Z,6.00
2018-02-06T10:39:55.036Z,6.00
2018-02-06T10:42:22.608Z,6.40
2018-02-06T10:44:50.200Z,6.50
2018-02-06T10:47:18.526Z,6.40
2018-02-06T10:49:46.111Z,6.40
2018-02-06T10:52:13.693Z,6.40
2018-02-06T10:54:42.044Z,6.60
2018-02-06T10:57:09.716Z,6.60
2018-02-06T10:59:37.292Z,6.70
2018-02-06T11:02:05.632Z,7.00
2018-02-06T11:04:33.212Z,7.00
2018-02-06T11:07:01.607Z,7.10
2018-02-06T11:09:29.957Z,7.30
2018-02-06T11:11:57.551Z,7.30
2018-02-06T11:14:25.129Z,7.20
2018-02-06T11:16:52.720Z,7.10
2018-02-06T11:19:20.326Z,7.30
2018-02-06T11:21:48.667Z,7.60
2018-02-06T11:24:16.259Z,7.60
2018-02-06T11:26:44.608Z,7.70
2018-02-06T11:29:12.174Z,7.70
2018-02-06T11:31:39.773Z,7.40
2018-02-06T11:34:08.106Z,7.10
2018-02-06T11:36:35.685Z,7.10
2018-02-06T11:39:03.259Z,7.20
2018-02-06T11:41:31.599Z,7.50
2018-02-06T11:43:59.186Z,7.50
2018-02-06T11:46:26.770Z,7.70
2018-02-06T11:48:54.422Z,7.80
2018-02-06T11:51:22.799Z,7.60
2018-02-06T11:53:51.162Z,7.40
2018-02-06T11:56:20.676Z,7.40
2018-02-06T11:58:49.009Z,7.80
2018-02-06T12:01:16.600Z,7.80
2018-02-06T12:03:44.507Z,8.10
2018-02-06T12:06:12.110Z,8.00
2018-02-06T12:08:39.710Z,8.10
2018-02-06T12:11:07.314Z,7.60
2018-02-06T12:13:35.005Z,7.80
2018-02-06T12:16:02.592Z,8.00
2018-02-06T12:18:31.032Z,8.10
2018-02-06T12:20:58.737Z,8.10
2018-02-06T12:23:27.079Z,8.20
2018-02-06T12:25:54.676Z,8.20
2018-02-06T12:28:23.054Z,8.30
2018-02-06T12:30:51.417Z,8.30
2018-02-06T12:33:19.803Z,8.00
2018-02-06T12:35:48.133Z,8.00
2018-02-06T12:38:15.712Z,8.00
2018-02-06T12:40:43.408Z,7.70
2018-02-06T12:43:10.986Z,7.20
2018-02-06T12:45:38.550Z,7.50
2018-02-06T12:48:06.171Z,7.10
2018-02-06T12:50:33.756Z,7.50
2018-02-06T12:53:02.088Z,8.40
2018-02-06T12:55:29.667Z,8.40
2018-02-06T12:57:57.238Z,8.40
2018-02-06T13:00:25.060Z,7.90
2018-02-06T13:02:52.719Z,8.00
2018-02-06T13:05:20.387Z,7.80
2018-02-06T13:07:48.777Z,7.30
2018-02-06T13:10:16.409Z,7.60
2018-02-06T13:12:44.030Z,7.20
2018-02-06T13:15:11.598Z,7.10
2018-02-06T13:17:39.217Z,7.10
2018-02-06T13:20:06.837Z,7.20
2018-02-06T13:22:35.200Z,6.80
2018-02-06T13:25:02.863Z,6.80
2018-02-06T13:27:31.241Z,6.50
2018-02-06T13:29:59.621Z,6.40
2018-02-06T13:32:27.968Z,5.90
2018-02-06T13:34:55.576Z,5.90
2018-02-06T13:37:23.905Z,5.20
2018-02-06T13:39:51.548Z,5.20
2018-02-06T13:42:19.176Z,5.30
2018-02-06T13:44:46.772Z,5.10
2018-02-06T13:47:14.340Z,5.10
2018-02-06T13:49:41.906Z,5.00
2018-02-06T13:52:09.488Z,4.90
2018-02-06T13:54:37.075Z,4.80
2018-02-06T13:57:05.435Z,4.60
2018-02-06T13:59:33.788Z,4.60
2018-02-06T14:02:01.477Z,4.60
2018-02-06T14:04:29.106Z,4.30
2018-02-06T14:06:56.714Z,4.20
2018-02-06T14:09:25.072Z,4.30
2018-02-06T14:11:52.650Z,4.30
2018-02-06T14:14:22.148Z,4.30
2018-02-06T14:16:50.576Z,4.10
2018-02-06T14:19:18.192Z,4.10
2018-02-06T14:21:46.577Z,4.00
2018-02-06T14:24:15.017Z,3.90
2018-02-06T14:26:42.602Z,3.90
2018-02-06T14:29:10.960Z,4.00
2018-02-06T14:31:38.530Z,4.00
2018-02-06T14:34:06.136Z,3.80
2018-02-06T14:36:33.716Z,3.80
2018-02-06T14:39:01.316Z,3.60
2018-02-06T14:41:28.900Z,3.60
2018-02-06T14:43:56.508Z,3.80
2018-02-06T14:46:24.097Z,3.50
2018-02-06T14:48:51.781Z,3.50
2018-02-06T14:51:20.127Z,3.20
2018-02-06T14:53:47.713Z,3.20
2018-02-06T14:56:16.090Z,2.90
2018-02-06T14:58:44.430Z,2.90
2018-02-06T15:01:12.029Z,2.80
2018-02-06T15:03:40.452Z,2.60
2018-02-06T15:06:08.123Z,2.60
2018-02-06T15:08:35.706Z,2.50
2018-02-06T15:11:03.391Z,2.40
2018-02-06T15:13:31.055Z,2.40
2018-02-06T15:15:59.439Z,2.20
2018-02-06T15:18:27.818Z,2.00
2018-02-06T15:20:56.201Z,1.80
2018-02-06T15:23:24.582Z,1.70
2018-02-06T15:25:52.948Z,1.50
2018-02-06T15:28:21.318Z,1.40
2018-02-06T15:30:48.903Z,1.40
2018-02-06T15:33:17.248Z,1.30
2018-02-06T15:35:44.943Z,1.20
2018-02-06T15:38:14.070Z,1.10
2018-02-06T15:40:41.664Z,1.00
2018-02-06T15:43:09.266Z,1.00
2018-02-06T15:45:36.853Z,1.00
2018-02-06T15:48:04.468Z,1.00
2018-02-06T15:50:32.860Z,0.80
2018-02-06T15:53:01.217Z,0.70
2018-02-06T15:55:29.573Z,0.60
2018-02-06T15:57:57.145Z,0.60
2018-02-06T16:00:28.926Z,0.50
2018-02-06T16:02:56.529Z,0.40
2018-02-06T16:05:24.440Z,0.40
2018-02-06T16:07:52.029Z,0.30
2018-02-06T16:10:20.401Z,0.20
2018-02-06T16:12:48.739Z,0.10
2018-02-06T16:15:16.314Z,0.10
2018-02-06T16:17:43.989Z,0.00
2018-02-06T16:20:11.641Z,0.00
2018-02-06T16:22:42.404Z,0.00
2018-02-06T16:25:09.995Z,0.00
2018-02-06T16:27:37.600Z,-0.10
2018-02-06T16:30:05.186Z,-0.20
2018-02-06T16:32:33.537Z,-0.30
2018-02-06T16:35:01.124Z,-0.30
2018-02-06T16:37:29.470Z,-0.40
2018-02-06T16:39:57.100Z,-0.40
2018-02-06T16:42:24.672Z,-0.40
2018-02-06T16:44:53.104Z,-0.50
2018-02-06T16:47:20.771Z,-0.60
2018-02-06T16:49:48.359Z,-0.60
2018-02-06T16:52:15.976Z,-0.70
2018-02-06T16:54:44.369Z,-0.80
2018-02-06T16:57:12.716Z,-0.80
2018-02-06T16:59:40.387Z,-0.80
2018-02-06T17:02:08.030Z,-0.90
2018-02-06T17:04:36.255Z,-0.90
2018-02-06T17:07:04.650Z,-1.00
2018-02-06T17:09:32.377Z,-1.00
2018-02-06T17:12:01.481Z,-1.10
2018-02-06T17:14:29.878Z,-1.20
2018-02-06T17:16:57.458Z,-1.20
2018-02-06T17:19:25.032Z,-1.20
2018-02-06T17:21:52.728Z,-1.30
2018-02-06T17:24:21.090Z,-1.40
2018-02-06T17:26:48.677Z,-1.40
2018-02-06T17:29:17.029Z,-1.40
2018-02-06T17:31:44.607Z,-1.40
2018-02-06T17:34:12.269Z,-1.40
2018-02-06T17:36:40.769Z,-1.30
2018-02-06T17:39:09.129Z,-1.40
2018-02-06T17:41:36.704Z,-1.40
2018-02-06T17:44:05.066Z,-1.40
2018-02-06T17:46:32.656Z,-1.40
2018-02-06T17:49:00.273Z,-1.50
2018-02-06T17:51:27.957Z,-1.50
2018-02-06T17:53:56.308Z,-1.50
2018-02-06T17:56:23.909Z,-1.50
2018-02-06T17:58:52.268Z,-1.50
2018-02-06T18:01:20.627Z,-1.50
2018-02-06T18:03:48.325Z,-1.50
2018-02-06T18:06:16.673Z,-1.50
2018-02-06T18:08:44.260Z,-1.50
2018-02-06T18:11:12.629Z,-1.50
2018-02-06T18:13:40.997Z,-1.50
2018-02-06T18:16:08.570Z,-1.50
2018-02-06T18:18:36.916Z,-1.50
2018-02-06T18:21:04.553Z,-1.50
2018-02-06T18:23:32.342Z,-1.50
2018-02-06T18:26:00.753Z,-1.50
2018-02-06T18:28:29.120Z,-1.50
2018-02-06T18:30:56.736Z,-1.50
2018-02-06T18:33:24.324Z,-1.50
2018-02-06T18:35:52.012Z,-1.60
2018-02-06T18:38:20.370Z,-1.60
2018-02-06T18:40:48.057Z,-1.60
2018-02-06T18:43:16.424Z,-1.60
2018-02-06T18:45:44.064Z,-1.70
2018-02-06T18:48:11.704Z,-1.60
2018-02-06T18:50:39.298Z,-1.60
2018-02-06T18:53:06.874Z,-1.60
2018-02-06T18:55:34.461Z,-1.70
2018-02-06T18:58:02.209Z,-1.70
2018-02-06T19:00:30.606Z,-1.80
2018-02-06T19:02:58.233Z,-1.80
2018-02-06T19:05:25.836Z,-1.80
2018-02-06T19:07:53.429Z,-1.80
2018-02-06T19:10:21.007Z,-1.80
2018-02-06T19:12:48.585Z,-1.80
2018-02-06T19:15:19.065Z,-1.80
2018-02-06T19:17:46.950Z,-1.80
2018-02-06T19:20:15.173Z,-1.80
2018-02-06T19:22:43.534Z,-1.80
2018-02-06T19:25:11.894Z,-1.80
2018-02-06T19:27:39.543Z,-1.80
2018-02-06T19:30:07.225Z,-1.90
2018-02-06T19:32:35.657Z,-1.90
2018-02-06T19:35:03.339Z,-1.90
2018-02-06T19:37:31.040Z,-1.90
2018-02-06T19:39:58.789Z,-1.90
2018-02-06T19:42:26.394Z,-1.90
2018-02-06T19:44:53.993Z,-1.90
2018-02-06T19:47:22.262Z,-1.90
2018-02-06T19:49:49.988Z,-1.90
2018-02-06T19:52:17.583Z,-2.00
2018-02-06T19:54:46.103Z,-2.00
2018-02-06T19:57:13.681Z,-2.00
2018-02-06T19:59:42.309Z,-2.00
2018-02-06T20:02:10.105Z,-2.10
2018-02-06T20:04:37.963Z,-2.10
2018-02-06T20:07:05.602Z,-2.10
2018-02-06T20:09:33.904Z,-2.10
2018-02-06T20:12:01.673Z,-2.10
2018-02-06T20:14:29.411Z,-2.10
2018-02-06T20:16:57.044Z,-2.10
2018-02-06T20:19:28.151Z,-2.10
2018-02-06T20:21:57.492Z,-2.20
2018-02-06T20:24:25.206Z,-2.20
2018-02-06T20:26:54.063Z,-2.10
2018-02-06T20:29:21.670Z,-2.20
2018-02-06T20:31:50.101Z,-2.10
2018-02-06T20:34:17.753Z,-2.20
2018-02-06T20:36:45.652Z,-2.10
2018-02-06T20:39:13.357Z,-2.10
2018-02-06T20:41:42.429Z,-2.20
2018-02-06T20:44:10.333Z,-2.20
2018-02-06T20:46:38.329Z,-2.20
2018-02-06T20:49:05.921Z,-2.20
2018-02-06T20:51:34.316Z,-2.30
2018-02-06T20:54:02.672Z,-2.30
2018-02-06T20:56:30.397Z,-2.30
2018-02-06T20:58:58.022Z,-2.30
2018-02-06T21:01:25.627Z,-2.40
2018-02-06T21:03:54.312Z,-2.30
2018-02-06T21:06:22.036Z,-2.40
2018-02-06T21:08:49.724Z,-2.50
2018-02-06T21:11:17.513Z,-2.40
2018-02-06T21:13:45.164Z,-2.50
2018-02-06T21:16:12.783Z,-2.50
2018-02-06T21:18:41.151Z,-2.60
2018-02-06T21:21:08.979Z,-2.60
2018-02-06T21:23:36.592Z,-2.60
2018-02-06T21:26:04.482Z,-2.60
2018-02-06T21:28:32.056Z,-2.70
2018-02-06T21:30:59.999Z,-2.70
2018-02-06T21:33:27.605Z,-2.70
2018-02-06T21:35:55.973Z,-2.80
2018-02-06T21:38:23.609Z,-2.80
2018-02-06T21:40:51.208Z,-2.80
2018-02-06T21:43:18.900Z,-2.80
2018-02-06T21:45:46.488Z,-2.90
2018-02-06T21:48:14.896Z,-2.90
2018-02-06T21:50:42.533Z,-3.00
2018-02-06T21:53:10.113Z,-3.00
2018-02-06T21:55:38.189Z,-3.10
2018-02-06T21:58:05.772Z,-3.10
2018-02-06T22:00:33.358Z,-3.10
2018-02-06T22:03:01.080Z,-3.10
2018-02-06T22:05:28.666Z,-3.10
2018-02-06T22:07:56.266Z,-3.10
2018-02-06T22:10:23.845Z,-3.20
2018-02-06T22:12:51.427Z,-3.20
2018-02-06T22:15:20.393Z,-3.20
2018-02-06T22:17:47.979Z,-3.30
2018-02-06T22:20:15.596Z,-3.30
2018-02-06T22:22:44.169Z,-3.20
2018-02-06T22:25:12.557Z,-3.30
2018-02-06T22:27:41.527Z,-3.30
2018-02-06T22:30:10.044Z,-3.30
2018-02-06T22:32:37.658Z,-3.30
2018-02-06T22:35:05.257Z,-3.30
2018-02-06T22:37:34.542Z,-3.40
2018-02-06T22:40:02.908Z,-3.40
2018-02-06T22:42:30.512Z,-3.40
2018-02-06T22:44:58.100Z,-3.40
2018-02-06T22:47:25.683Z,-3.50
2018-02-06T22:49:53.277Z,-3.50
2018-02-06T22:52:21.628Z,-3.50
2018-02-06T22:54:49.212Z,-3.60
2018-02-06T22:57:17.674Z,-3.60
2018-02-06T22:59:45.269Z,-3.60
2018-02-06T23:02:12.849Z,-3.60
2018-02-06T23:04:41.444Z,-3.70
2018-02-06T23:07:09.039Z,-3.70
2018-02-06T23:09:36.632Z,-3.80
2018-02-06T23:12:04.215Z,-3.80
2018-02-06T23:14:31.785Z,-3.90
2018-02-06T23:16:59.369Z,-3.90
2018-02-06T23:19:26.944Z,-3.90
2018-02-06T23:21:54.533Z,-4.00
2018-02-06T23:24:22.220Z,-4.00
2018-02-06T23:26:49.984Z,-4.00
2018-02-06T23:29:17.571Z,-4.10
2018-02-06T23:31:45.356Z,-4.00
2018-02-06T23:34:12.942Z,-4.00
2018-02-06T23:36:40.533Z,-4.00
2018-02-06T23:39:08.164Z,-4.00
2018-02-06T23:41:35.785Z,-4.00
2018-02-06T23:44:03.360Z,-4.00
2018-02-06T23:46:30.945Z,-4.00
2018-02-06T23:48:58.529Z,-4.00
2018-02-06T23:51:26.120Z,-4.10
2018-02-06T23:53:53.700Z,-4.10
2018-02-06T23:56:21.284Z,-4.10
2018-02-06T23:58:49.643Z,-4.10
